sensor_id;sensor_type;location;lat;lon;timestamp;P1;durP1;ratioP1;P2;durP2;ratioP2
7110;SDS011;3597;42.650;23.386;2023-02-18T00:01:54;1.33;;;1.33;;
7110;SDS011;3597;42.650;23.386;2023-02-18T00:04:19;1.17;;;1.17;;
7110;SDS011;3597;42.650;23.386;2023-02-18T00:06:44;1.50;;;1.50;;
7110;SDS011;3597;42.650;23.386;2023-02-18T00:09:10;1.40;;;1.40;;
7110;SDS011;3597;42.650;23.386;2023-02-18T00:11:36;1.67;;;1.60;;
7110;SDS011;3597;42.650;23.386;2023-02-18T00:14:02;1.40;;;1.40;;
7110;SDS011;3597;42.650;23.386;2023-02-18T00:16:32;1.40;;;1.40;;
7110;SDS011;3597;42.650;23.386;2023-02-18T00:18:59;1.97;;;1.63;;
7110;SDS011;3597;42.650;23.386;2023-02-18T00:21:25;1.30;;;1.30;;
7110;SDS011;3597;42.650;23.386;2023-02-18T00:23:51;1.10;;;1.10;;
7110;SDS011;3597;42.650;23.386;2023-02-18T00:26:17;1.50;;;1.50;;
7110;SDS011;3597;42.650;23.386;2023-02-18T00:28:43;1.40;;;1.30;;
7110;SDS011;3597;42.650;23.386;2023-02-18T00:31:10;1.00;;;1.00;;
7110;SDS011;3597;42.650;23.386;2023-02-18T00:33:37;1.20;;;1.20;;
7110;SDS011;3597;42.650;23.386;2023-02-18T00:36:04;1.40;;;1.40;;
7110;SDS011;3597;42.650;23.386;2023-02-18T00:38:30;1.00;;;1.00;;
7110;SDS011;3597;42.650;23.386;2023-02-18T00:40:56;1.00;;;1.00;;
7110;SDS011;3597;42.650;23.386;2023-02-18T00:43:22;1.20;;;1.20;;
7110;SDS011;3597;42.650;23.386;2023-02-18T00:45:47;0.93;;;0.93;;
7110;SDS011;3597;42.650;23.386;2023-02-18T00:48:13;1.43;;;1.43;;
7110;SDS011;3597;42.650;23.386;2023-02-18T00:50:38;1.43;;;1.33;;
7110;SDS011;3597;42.650;23.386;2023-02-18T00:53:03;1.43;;;1.43;;
7110;SDS011;3597;42.650;23.386;2023-02-18T00:55:32;1.30;;;1.30;;
7110;SDS011;3597;42.650;23.386;2023-02-18T00:57:57;1.87;;;1.57;;
7110;SDS011;3597;42.650;23.386;2023-02-18T01:00:22;1.53;;;1.53;;
7110;SDS011;3597;42.650;23.386;2023-02-18T01:02:49;1.70;;;1.60;;
7110;SDS011;3597;42.650;23.386;2023-02-18T01:05:18;1.10;;;1.10;;
7110;SDS011;3597;42.650;23.386;2023-02-18T01:07:43;1.37;;;1.30;;
7110;SDS011;3597;42.650;23.386;2023-02-18T01:10:09;1.00;;;1.00;;
7110;SDS011;3597;42.650;23.386;2023-02-18T01:12:34;1.43;;;1.43;;
7110;SDS011;3597;42.650;23.386;2023-02-18T01:15:00;1.10;;;1.10;;
7110;SDS011;3597;42.650;23.386;2023-02-18T01:17:25;1.60;;;1.60;;
7110;SDS011;3597;42.650;23.386;2023-02-18T01:19:50;1.67;;;1.67;;
7110;SDS011;3597;42.650;23.386;2023-02-18T01:22:16;1.37;;;1.37;;
7110;SDS011;3597;42.650;23.386;2023-02-18T01:24:41;1.50;;;1.13;;
7110;SDS011;3597;42.650;23.386;2023-02-18T01:27:06;1.20;;;1.20;;
7110;SDS011;3597;42.650;23.386;2023-02-18T01:29:31;1.50;;;1.50;;
7110;SDS011;3597;42.650;23.386;2023-02-18T01:31:57;1.60;;;1.50;;
7110;SDS011;3597;42.650;23.386;2023-02-18T01:34:22;1.70;;;1.60;;
7110;SDS011;3597;42.650;23.386;2023-02-18T01:36:47;1.40;;;1.40;;
7110;SDS011;3597;42.650;23.386;2023-02-18T01:39:13;1.70;;;1.30;;
7110;SDS011;3597;42.650;23.386;2023-02-18T01:41:38;1.40;;;1.40;;
7110;SDS011;3597;42.650;23.386;2023-02-18T01:44:14;2.03;;;1.90;;
7110;SDS011;3597;42.650;23.386;2023-02-18T01:46:41;1.90;;;1.90;;
7110;SDS011;3597;42.650;23.386;2023-02-18T01:49:06;1.37;;;1.37;;
7110;SDS011;3597;42.650;23.386;2023-02-18T01:51:34;1.60;;;1.50;;
7110;SDS011;3597;42.650;23.386;2023-02-18T01:54:04;1.43;;;1.43;;
7110;SDS011;3597;42.650;23.386;2023-02-18T01:59:59;1.10;;;1.10;;
7110;SDS011;3597;42.650;23.386;2023-02-18T02:02:33;1.40;;;1.40;;
7110;SDS011;3597;42.650;23.386;2023-02-18T02:04:59;1.50;;;1.40;;
7110;SDS011;3597;42.650;23.386;2023-02-18T02:07:25;1.33;;;1.33;;
7110;SDS011;3597;42.650;23.386;2023-02-18T02:09:51;1.27;;;1.27;;
7110;SDS011;3597;42.650;23.386;2023-02-18T02:20:34;1.50;;;1.50;;
7110;SDS011;3597;42.650;23.386;2023-02-18T02:34:38;1.73;;;1.67;;
7110;SDS011;3597;42.650;23.386;2023-02-18T02:39:45;1.30;;;1.30;;
7110;SDS011;3597;42.650;23.386;2023-02-18T02:47:24;1.60;;;1.60;;
7110;SDS011;3597;42.650;23.386;2023-02-18T02:52:29;0.83;;;0.83;;
7110;SDS011;3597;42.650;23.386;2023-02-18T02:54:56;1.00;;;1.00;;
7110;SDS011;3597;42.650;23.386;2023-02-18T02:59:48;0.67;;;0.67;;
7110;SDS011;3597;42.650;23.386;2023-02-18T03:05:07;1.23;;;1.23;;
7110;SDS011;3597;42.650;23.386;2023-02-18T03:13:29;1.00;;;1.00;;
7110;SDS011;3597;42.650;23.386;2023-02-18T03:22:04;1.30;;;1.30;;
7110;SDS011;3597;42.650;23.386;2023-02-18T03:24:33;1.13;;;1.13;;
7110;SDS011;3597;42.650;23.386;2023-02-18T03:29:45;1.00;;;1.00;;
7110;SDS011;3597;42.650;23.386;2023-02-18T03:32:14;1.60;;;1.60;;
7110;SDS011;3597;42.650;23.386;2023-02-18T03:34:43;1.10;;;1.10;;
7110;SDS011;3597;42.650;23.386;2023-02-18T03:37:11;1.07;;;1.07;;
7110;SDS011;3597;42.650;23.386;2023-02-18T03:39:38;1.50;;;1.50;;
7110;SDS011;3597;42.650;23.386;2023-02-18T03:42:05;1.20;;;1.20;;
7110;SDS011;3597;42.650;23.386;2023-02-18T03:44:31;1.20;;;1.10;;
7110;SDS011;3597;42.650;23.386;2023-02-18T03:46:57;1.17;;;1.17;;
7110;SDS011;3597;42.650;23.386;2023-02-18T03:49:22;1.10;;;1.00;;
7110;SDS011;3597;42.650;23.386;2023-02-18T03:51:47;1.20;;;1.20;;
7110;SDS011;3597;42.650;23.386;2023-02-18T03:54:13;1.73;;;1.63;;
7110;SDS011;3597;42.650;23.386;2023-02-18T03:56:39;1.10;;;1.10;;
7110;SDS011;3597;42.650;23.386;2023-02-18T03:59:04;1.50;;;1.50;;
7110;SDS011;3597;42.650;23.386;2023-02-18T04:01:30;1.37;;;1.30;;
7110;SDS011;3597;42.650;23.386;2023-02-18T04:03:55;1.37;;;1.27;;
7110;SDS011;3597;42.650;23.386;2023-02-18T04:06:21;0.90;;;0.90;;
7110;SDS011;3597;42.650;23.386;2023-02-18T04:08:47;1.00;;;1.00;;
7110;SDS011;3597;42.650;23.386;2023-02-18T04:11:13;1.43;;;1.33;;
7110;SDS011;3597;42.650;23.386;2023-02-18T04:13:38;1.27;;;1.27;;
7110;SDS011;3597;42.650;23.386;2023-02-18T04:16:03;1.47;;;1.47;;
7110;SDS011;3597;42.650;23.386;2023-02-18T04:18:29;1.43;;;1.10;;
7110;SDS011;3597;42.650;23.386;2023-02-18T04:20:54;1.43;;;1.33;;
7110;SDS011;3597;42.650;23.386;2023-02-18T04:23:20;1.40;;;1.40;;
7110;SDS011;3597;42.650;23.386;2023-02-18T04:25:45;1.50;;;1.50;;
7110;SDS011;3597;42.650;23.386;2023-02-18T04:28:12;1.00;;;1.00;;
7110;SDS011;3597;42.650;23.386;2023-02-18T04:30:39;1.17;;;1.17;;
7110;SDS011;3597;42.650;23.386;2023-02-18T04:33:05;1.67;;;1.67;;
7110;SDS011;3597;42.650;23.386;2023-02-18T04:35:30;1.10;;;1.10;;
7110;SDS011;3597;42.650;23.386;2023-02-18T04:37:55;2.00;;;1.10;;
7110;SDS011;3597;42.650;23.386;2023-02-18T04:40:21;1.43;;;1.43;;
7110;SDS011;3597;42.650;23.386;2023-02-18T04:42:46;1.57;;;1.57;;
7110;SDS011;3597;42.650;23.386;2023-02-18T04:45:11;1.30;;;1.30;;
7110;SDS011;3597;42.650;23.386;2023-02-18T04:47:37;1.53;;;1.50;;
7110;SDS011;3597;42.650;23.386;2023-02-18T04:50:02;1.70;;;1.70;;
7110;SDS011;3597;42.650;23.386;2023-02-18T04:52:28;1.30;;;1.30;;
7110;SDS011;3597;42.650;23.386;2023-02-18T04:54:53;2.40;;;2.17;;
7110;SDS011;3597;42.650;23.386;2023-02-18T04:57:19;1.77;;;1.77;;
7110;SDS011;3597;42.650;23.386;2023-02-18T04:59:44;1.43;;;1.43;;
7110;SDS011;3597;42.650;23.386;2023-02-18T05:02:09;1.20;;;1.20;;
7110;SDS011;3597;42.650;23.386;2023-02-18T05:04:35;2.30;;;2.23;;
7110;SDS011;3597;42.650;23.386;2023-02-18T05:07:00;1.37;;;1.37;;
7110;SDS011;3597;42.650;23.386;2023-02-18T05:09:25;1.13;;;1.13;;
7110;SDS011;3597;42.650;23.386;2023-02-18T05:11:51;1.30;;;1.30;;
7110;SDS011;3597;42.650;23.386;2023-02-18T05:14:16;1.10;;;1.10;;
7110;SDS011;3597;42.650;23.386;2023-02-18T05:16:42;1.30;;;1.30;;
7110;SDS011;3597;42.650;23.386;2023-02-18T05:19:09;1.53;;;1.53;;
7110;SDS011;3597;42.650;23.386;2023-02-18T05:21:36;1.50;;;1.50;;
7110;SDS011;3597;42.650;23.386;2023-02-18T05:24:02;1.63;;;1.63;;
7110;SDS011;3597;42.650;23.386;2023-02-18T05:26:27;1.20;;;1.20;;
7110;SDS011;3597;42.650;23.386;2023-02-18T05:28:53;1.50;;;1.50;;
7110;SDS011;3597;42.650;23.386;2023-02-18T05:31:18;1.40;;;1.40;;
7110;SDS011;3597;42.650;23.386;2023-02-18T05:33:43;1.60;;;1.60;;
7110;SDS011;3597;42.650;23.386;2023-02-18T05:36:09;1.27;;;1.27;;
7110;SDS011;3597;42.650;23.386;2023-02-18T05:38:34;1.60;;;1.60;;
7110;SDS011;3597;42.650;23.386;2023-02-18T05:41:00;1.60;;;1.60;;
7110;SDS011;3597;42.650;23.386;2023-02-18T05:43:25;1.47;;;1.47;;
7110;SDS011;3597;42.650;23.386;2023-02-18T05:45:50;1.80;;;1.80;;
7110;SDS011;3597;42.650;23.386;2023-02-18T05:48:16;1.27;;;1.27;;
7110;SDS011;3597;42.650;23.386;2023-02-18T05:50:41;2.50;;;2.47;;
7110;SDS011;3597;42.650;23.386;2023-02-18T05:53:06;1.20;;;1.20;;
7110;SDS011;3597;42.650;23.386;2023-02-18T05:55:32;1.60;;;1.60;;
7110;SDS011;3597;42.650;23.386;2023-02-18T05:58:01;1.70;;;1.70;;
7110;SDS011;3597;42.650;23.386;2023-02-18T06:00:27;1.63;;;1.60;;
7110;SDS011;3597;42.650;23.386;2023-02-18T06:02:53;4.23;;;1.60;;
7110;SDS011;3597;42.650;23.386;2023-02-18T06:05:19;1.93;;;1.93;;
7110;SDS011;3597;42.650;23.386;2023-02-18T06:07:44;1.50;;;1.50;;
7110;SDS011;3597;42.650;23.386;2023-02-18T06:10:09;1.13;;;1.13;;
7110;SDS011;3597;42.650;23.386;2023-02-18T06:12:35;1.17;;;1.17;;
7110;SDS011;3597;42.650;23.386;2023-02-18T06:15:00;1.50;;;1.50;;
7110;SDS011;3597;42.650;23.386;2023-02-18T06:17:26;1.37;;;1.37;;
7110;SDS011;3597;42.650;23.386;2023-02-18T06:19:51;9.40;;;1.57;;
7110;SDS011;3597;42.650;23.386;2023-02-18T06:22:16;1.50;;;1.50;;
7110;SDS011;3597;42.650;23.386;2023-02-18T06:24:42;1.50;;;1.50;;
7110;SDS011;3597;42.650;23.386;2023-02-18T06:27:07;1.20;;;1.20;;
7110;SDS011;3597;42.650;23.386;2023-02-18T06:29:32;1.30;;;1.30;;
7110;SDS011;3597;42.650;23.386;2023-02-18T06:31:59;1.10;;;1.10;;
7110;SDS011;3597;42.650;23.386;2023-02-18T06:34:25;1.20;;;1.20;;
7110;SDS011;3597;42.650;23.386;2023-02-18T06:36:51;1.47;;;1.47;;
7110;SDS011;3597;42.650;23.386;2023-02-18T06:39:16;2.17;;;1.47;;
7110;SDS011;3597;42.650;23.386;2023-02-18T06:41:42;1.50;;;1.50;;
7110;SDS011;3597;42.650;23.386;2023-02-18T06:44:07;1.30;;;1.30;;
7110;SDS011;3597;42.650;23.386;2023-02-18T06:46:33;2.03;;;1.90;;
7110;SDS011;3597;42.650;23.386;2023-02-18T06:48:58;1.40;;;1.40;;
7110;SDS011;3597;42.650;23.386;2023-02-18T06:51:23;2.10;;;2.10;;
7110;SDS011;3597;42.650;23.386;2023-02-18T06:53:49;1.67;;;1.67;;
7110;SDS011;3597;42.650;23.386;2023-02-18T06:56:14;1.20;;;1.20;;
7110;SDS011;3597;42.650;23.386;2023-02-18T06:58:39;1.30;;;1.30;;
7110;SDS011;3597;42.650;23.386;2023-02-18T07:01:05;1.50;;;1.40;;
7110;SDS011;3597;42.650;23.386;2023-02-18T07:03:30;1.60;;;1.50;;
7110;SDS011;3597;42.650;23.386;2023-02-18T07:05:55;1.77;;;1.67;;
7110;SDS011;3597;42.650;23.386;2023-02-18T07:08:21;1.60;;;1.60;;
7110;SDS011;3597;42.650;23.386;2023-02-18T07:10:46;2.17;;;2.07;;
7110;SDS011;3597;42.650;23.386;2023-02-18T07:13:12;1.90;;;1.90;;
7110;SDS011;3597;42.650;23.386;2023-02-18T07:15:38;1.40;;;1.40;;
7110;SDS011;3597;42.650;23.386;2023-02-18T07:18:04;1.87;;;1.87;;
7110;SDS011;3597;42.650;23.386;2023-02-18T07:20:30;1.40;;;1.30;;
7110;SDS011;3597;42.650;23.386;2023-02-18T07:22:55;2.73;;;2.63;;
7110;SDS011;3597;42.650;23.386;2023-02-18T07:25:20;1.67;;;1.67;;
7110;SDS011;3597;42.650;23.386;2023-02-18T07:27:46;1.87;;;1.87;;
7110;SDS011;3597;42.650;23.386;2023-02-18T07:30:12;2.30;;;2.20;;
7110;SDS011;3597;42.650;23.386;2023-02-18T07:32:37;1.77;;;1.77;;
7110;SDS011;3597;42.650;23.386;2023-02-18T07:35:03;2.07;;;1.97;;
7110;SDS011;3597;42.650;23.386;2023-02-18T07:37:29;5.63;;;1.77;;
7110;SDS011;3597;42.650;23.386;2023-02-18T07:39:55;7.90;;;2.07;;
7110;SDS011;3597;42.650;23.386;2023-02-18T07:42:20;1.70;;;1.70;;
7110;SDS011;3597;42.650;23.386;2023-02-18T07:44:46;2.00;;;2.00;;
7110;SDS011;3597;42.650;23.386;2023-02-18T07:47:13;2.00;;;2.00;;
7110;SDS011;3597;42.650;23.386;2023-02-18T07:49:39;2.23;;;2.17;;
7110;SDS011;3597;42.650;23.386;2023-02-18T07:52:05;2.20;;;2.10;;
7110;SDS011;3597;42.650;23.386;2023-02-18T07:54:30;2.40;;;2.40;;
7110;SDS011;3597;42.650;23.386;2023-02-18T07:56:55;2.40;;;2.30;;
7110;SDS011;3597;42.650;23.386;2023-02-18T07:59:21;2.13;;;2.03;;
7110;SDS011;3597;42.650;23.386;2023-02-18T08:01:46;3.43;;;2.77;;
7110;SDS011;3597;42.650;23.386;2023-02-18T08:04:11;2.03;;;2.03;;
7110;SDS011;3597;42.650;23.386;2023-02-18T08:06:38;1.60;;;1.60;;
7110;SDS011;3597;42.650;23.386;2023-02-18T08:09:04;2.70;;;2.17;;
7110;SDS011;3597;42.650;23.386;2023-02-18T08:11:30;3.17;;;2.20;;
7110;SDS011;3597;42.650;23.386;2023-02-18T08:13:55;2.13;;;2.10;;
7110;SDS011;3597;42.650;23.386;2023-02-18T08:16:21;2.77;;;2.67;;
7110;SDS011;3597;42.650;23.386;2023-02-18T08:18:47;2.50;;;2.40;;
7110;SDS011;3597;42.650;23.386;2023-02-18T08:21:14;3.40;;;3.13;;
7110;SDS011;3597;42.650;23.386;2023-02-18T08:23:40;3.40;;;3.10;;
7110;SDS011;3597;42.650;23.386;2023-02-18T08:26:06;2.30;;;2.20;;
7110;SDS011;3597;42.650;23.386;2023-02-18T08:28:31;2.80;;;2.70;;
7110;SDS011;3597;42.650;23.386;2023-02-18T08:30:57;3.87;;;3.47;;
7110;SDS011;3597;42.650;23.386;2023-02-18T08:33:22;2.87;;;2.77;;
7110;SDS011;3597;42.650;23.386;2023-02-18T08:35:49;2.60;;;2.50;;
7110;SDS011;3597;42.650;23.386;2023-02-18T08:38:15;3.07;;;2.87;;
7110;SDS011;3597;42.650;23.386;2023-02-18T08:40:40;1.97;;;1.87;;
7110;SDS011;3597;42.650;23.386;2023-02-18T08:43:06;2.87;;;2.77;;
7110;SDS011;3597;42.650;23.386;2023-02-18T08:45:31;2.87;;;2.57;;
7110;SDS011;3597;42.650;23.386;2023-02-18T08:47:57;2.80;;;2.70;;
7110;SDS011;3597;42.650;23.386;2023-02-18T08:50:22;3.07;;;2.87;;
7110;SDS011;3597;42.650;23.386;2023-02-18T08:52:51;3.60;;;3.00;;
7110;SDS011;3597;42.650;23.386;2023-02-18T08:55:16;3.80;;;3.13;;
7110;SDS011;3597;42.650;23.386;2023-02-18T08:57:45;2.00;;;1.90;;
7110;SDS011;3597;42.650;23.386;2023-02-18T09:00:11;3.00;;;2.80;;
7110;SDS011;3597;42.650;23.386;2023-02-18T09:02:37;2.33;;;2.23;;
7110;SDS011;3597;42.650;23.386;2023-02-18T09:05:03;2.80;;;2.70;;
7110;SDS011;3597;42.650;23.386;2023-02-18T09:07:29;2.83;;;2.63;;
7110;SDS011;3597;42.650;23.386;2023-02-18T09:09:54;2.67;;;2.57;;
7110;SDS011;3597;42.650;23.386;2023-02-18T09:12:19;2.33;;;2.30;;
7110;SDS011;3597;42.650;23.386;2023-02-18T09:14:46;2.93;;;2.77;;
7110;SDS011;3597;42.650;23.386;2023-02-18T09:17:12;2.80;;;2.60;;
7110;SDS011;3597;42.650;23.386;2023-02-18T09:19:37;2.90;;;2.80;;
7110;SDS011;3597;42.650;23.386;2023-02-18T09:22:03;2.10;;;2.00;;
7110;SDS011;3597;42.650;23.386;2023-02-18T09:24:28;2.53;;;2.47;;
7110;SDS011;3597;42.650;23.386;2023-02-18T09:26:54;2.60;;;2.50;;
7110;SDS011;3597;42.650;23.386;2023-02-18T09:29:19;2.20;;;2.20;;
7110;SDS011;3597;42.650;23.386;2023-02-18T09:31:44;2.47;;;2.40;;
7110;SDS011;3597;42.650;23.386;2023-02-18T09:34:10;2.67;;;2.53;;
7110;SDS011;3597;42.650;23.386;2023-02-18T09:36:35;2.67;;;2.57;;
7110;SDS011;3597;42.650;23.386;2023-02-18T09:39:04;3.37;;;3.17;;
7110;SDS011;3597;42.650;23.386;2023-02-18T09:41:31;3.07;;;2.40;;
7110;SDS011;3597;42.650;23.386;2023-02-18T09:44:10;3.37;;;3.17;;
7110;SDS011;3597;42.650;23.386;2023-02-18T09:46:49;2.53;;;2.50;;
7110;SDS011;3597;42.650;23.386;2023-02-18T09:49:18;5.57;;;2.33;;
7110;SDS011;3597;42.650;23.386;2023-02-18T09:51:45;3.10;;;2.90;;
7110;SDS011;3597;42.650;23.386;2023-02-18T09:54:12;2.33;;;2.23;;
7110;SDS011;3597;42.650;23.386;2023-02-18T09:56:40;2.57;;;2.57;;
7110;SDS011;3597;42.650;23.386;2023-02-18T09:59:09;2.60;;;2.50;;
7110;SDS011;3597;42.650;23.386;2023-02-18T10:01:39;2.70;;;2.57;;
7110;SDS011;3597;42.650;23.386;2023-02-18T10:04:09;3.37;;;3.17;;
7110;SDS011;3597;42.650;23.386;2023-02-18T10:06:42;2.30;;;2.20;;
7110;SDS011;3597;42.650;23.386;2023-02-18T10:09:17;5.40;;;3.10;;
7110;SDS011;3597;42.650;23.386;2023-02-18T10:11:48;2.43;;;2.33;;
7110;SDS011;3597;42.650;23.386;2023-02-18T10:14:16;7.10;;;2.60;;
7110;SDS011;3597;42.650;23.386;2023-02-18T10:16:44;2.90;;;2.80;;
7110;SDS011;3597;42.650;23.386;2023-02-18T10:21:55;2.83;;;2.60;;
7110;SDS011;3597;42.650;23.386;2023-02-18T10:24:38;3.53;;;2.80;;
7110;SDS011;3597;42.650;23.386;2023-02-18T10:27:06;3.70;;;2.80;;
7110;SDS011;3597;42.650;23.386;2023-02-18T10:29:32;4.00;;;3.70;;
7110;SDS011;3597;42.650;23.386;2023-02-18T10:48:24;2.80;;;2.70;;
7110;SDS011;3597;42.650;23.386;2023-02-18T10:50:50;3.00;;;2.90;;
7110;SDS011;3597;42.650;23.386;2023-02-18T10:53:33;3.20;;;3.00;;
7110;SDS011;3597;42.650;23.386;2023-02-18T10:56:00;3.07;;;2.90;;
7110;SDS011;3597;42.650;23.386;2023-02-18T11:00:52;5.33;;;3.47;;
7110;SDS011;3597;42.650;23.386;2023-02-18T11:03:19;3.20;;;3.00;;
7110;SDS011;3597;42.650;23.386;2023-02-18T11:05:52;2.80;;;2.60;;
7110;SDS011;3597;42.650;23.386;2023-02-18T11:08:26;3.07;;;2.87;;
7110;SDS011;3597;42.650;23.386;2023-02-18T11:10:52;3.20;;;3.10;;
7110;SDS011;3597;42.650;23.386;2023-02-18T11:13:23;2.33;;;2.23;;
7110;SDS011;3597;42.650;23.386;2023-02-18T11:16:01;2.60;;;2.50;;
7110;SDS011;3597;42.650;23.386;2023-02-18T11:18:31;2.70;;;2.60;;
7110;SDS011;3597;42.650;23.386;2023-02-18T11:21:02;2.70;;;2.60;;
7110;SDS011;3597;42.650;23.386;2023-02-18T11:23:30;2.90;;;2.70;;
7110;SDS011;3597;42.650;23.386;2023-02-18T11:26:00;3.07;;;2.63;;
7110;SDS011;3597;42.650;23.386;2023-02-18T11:31:02;2.93;;;2.73;;
7110;SDS011;3597;42.650;23.386;2023-02-18T11:33:37;2.20;;;2.10;;
7110;SDS011;3597;42.650;23.386;2023-02-18T11:36:08;2.50;;;2.40;;
7110;SDS011;3597;42.650;23.386;2023-02-18T11:41:28;3.73;;;3.47;;
7110;SDS011;3597;42.650;23.386;2023-02-18T11:43:56;3.00;;;2.80;;
7110;SDS011;3597;42.650;23.386;2023-02-18T11:46:23;3.00;;;2.90;;
7110;SDS011;3597;42.650;23.386;2023-02-18T11:48:50;3.00;;;2.80;;
7110;SDS011;3597;42.650;23.386;2023-02-18T11:51:17;4.23;;;3.10;;
7110;SDS011;3597;42.650;23.386;2023-02-18T11:56:24;2.20;;;2.10;;
7110;SDS011;3597;42.650;23.386;2023-02-18T11:58:50;1.70;;;1.70;;
7110;SDS011;3597;42.650;23.386;2023-02-18T12:09:42;1.77;;;1.77;;
7110;SDS011;3597;42.650;23.386;2023-02-18T12:14:37;1.47;;;1.47;;
7110;SDS011;3597;42.650;23.386;2023-02-18T12:30:37;3.90;;;1.93;;
7110;SDS011;3597;42.650;23.386;2023-02-18T12:33:21;1.77;;;1.70;;
7110;SDS011;3597;42.650;23.386;2023-02-18T12:44:24;1.67;;;1.67;;
7110;SDS011;3597;42.650;23.386;2023-02-18T13:11:32;2.07;;;1.97;;
7110;SDS011;3597;42.650;23.386;2023-02-18T13:14:06;3.50;;;1.90;;
7110;SDS011;3597;42.650;23.386;2023-02-18T13:16:33;1.80;;;1.80;;
7110;SDS011;3597;42.650;23.386;2023-02-18T13:19:20;1.60;;;1.60;;
7110;SDS011;3597;42.650;23.386;2023-02-18T13:21:48;1.67;;;1.67;;
7110;SDS011;3597;42.650;23.386;2023-02-18T13:27:01;1.30;;;1.30;;
7110;SDS011;3597;42.650;23.386;2023-02-18T13:32:53;1.67;;;1.67;;
7110;SDS011;3597;42.650;23.386;2023-02-18T13:41:19;1.23;;;1.23;;
7110;SDS011;3597;42.650;23.386;2023-02-18T13:43:44;1.00;;;1.00;;
7110;SDS011;3597;42.650;23.386;2023-02-18T13:46:23;1.33;;;1.33;;
7110;SDS011;3597;42.650;23.386;2023-02-18T13:51:40;1.70;;;1.47;;
7110;SDS011;3597;42.650;23.386;2023-02-18T13:56:42;1.67;;;1.67;;
7110;SDS011;3597;42.650;23.386;2023-02-18T14:07:23;1.70;;;1.70;;
7110;SDS011;3597;42.650;23.386;2023-02-18T14:09:54;1.50;;;1.50;;
7110;SDS011;3597;42.650;23.386;2023-02-18T14:25:48;1.63;;;1.63;;
7110;SDS011;3597;42.650;23.386;2023-02-18T14:33:41;1.43;;;1.33;;
7110;SDS011;3597;42.650;23.386;2023-02-18T14:36:34;1.70;;;1.70;;
7110;SDS011;3597;42.650;23.386;2023-02-18T14:41:50;1.77;;;1.67;;
7110;SDS011;3597;42.650;23.386;2023-02-18T14:47:24;1.40;;;1.40;;
7110;SDS011;3597;42.650;23.386;2023-02-18T14:49:52;1.60;;;1.60;;
7110;SDS011;3597;42.650;23.386;2023-02-18T14:54:55;1.73;;;1.63;;
7110;SDS011;3597;42.650;23.386;2023-02-18T14:57:25;2.03;;;1.93;;
7110;SDS011;3597;42.650;23.386;2023-02-18T15:00:17;1.70;;;1.70;;
7110;SDS011;3597;42.650;23.386;2023-02-18T15:02:46;2.17;;;2.07;;
7110;SDS011;3597;42.650;23.386;2023-02-18T15:05:17;1.80;;;1.70;;
7110;SDS011;3597;42.650;23.386;2023-02-18T15:08:03;1.70;;;1.60;;
7110;SDS011;3597;42.650;23.386;2023-02-18T15:13:17;1.70;;;1.60;;
7110;SDS011;3597;42.650;23.386;2023-02-18T15:15:43;1.50;;;1.50;;
7110;SDS011;3597;42.650;23.386;2023-02-18T15:18:18;1.90;;;1.80;;
7110;SDS011;3597;42.650;23.386;2023-02-18T15:20:46;1.77;;;1.77;;
7110;SDS011;3597;42.650;23.386;2023-02-18T15:23:12;1.43;;;1.43;;
7110;SDS011;3597;42.650;23.386;2023-02-18T15:25:47;1.63;;;1.63;;
7110;SDS011;3597;42.650;23.386;2023-02-18T15:28:50;1.47;;;1.47;;
7110;SDS011;3597;42.650;23.386;2023-02-18T15:31:14;1.57;;;1.57;;
7110;SDS011;3597;42.650;23.386;2023-02-18T15:33:43;1.70;;;1.70;;
7110;SDS011;3597;42.650;23.386;2023-02-18T15:36:12;1.50;;;1.50;;
7110;SDS011;3597;42.650;23.386;2023-02-18T15:38:38;1.60;;;1.60;;
7110;SDS011;3597;42.650;23.386;2023-02-18T15:41:09;1.53;;;1.53;;
7110;SDS011;3597;42.650;23.386;2023-02-18T15:43:35;1.50;;;1.50;;
7110;SDS011;3597;42.650;23.386;2023-02-18T15:46:04;1.80;;;1.67;;
7110;SDS011;3597;42.650;23.386;2023-02-18T15:48:42;2.30;;;2.10;;
7110;SDS011;3597;42.650;23.386;2023-02-18T15:51:10;6.80;;;1.60;;
7110;SDS011;3597;42.650;23.386;2023-02-18T15:53:40;1.73;;;1.73;;
7110;SDS011;3597;42.650;23.386;2023-02-18T15:56:08;1.60;;;1.50;;
7110;SDS011;3597;42.650;23.386;2023-02-18T15:58:34;1.83;;;1.73;;
7110;SDS011;3597;42.650;23.386;2023-02-18T16:01:01;1.60;;;1.60;;
7110;SDS011;3597;42.650;23.386;2023-02-18T16:03:29;1.73;;;1.73;;
7110;SDS011;3597;42.650;23.386;2023-02-18T16:06:15;1.70;;;1.70;;
7110;SDS011;3597;42.650;23.386;2023-02-18T16:08:45;1.87;;;1.87;;
7110;SDS011;3597;42.650;23.386;2023-02-18T16:11:21;1.73;;;1.73;;
7110;SDS011;3597;42.650;23.386;2023-02-18T16:13:48;1.87;;;1.77;;
7110;SDS011;3597;42.650;23.386;2023-02-18T16:16:23;1.83;;;1.77;;
7110;SDS011;3597;42.650;23.386;2023-02-18T16:18:52;1.63;;;1.53;;
7110;SDS011;3597;42.650;23.386;2023-02-18T16:23:44;1.97;;;1.90;;
7110;SDS011;3597;42.650;23.386;2023-02-18T16:26:21;1.67;;;1.50;;
7110;SDS011;3597;42.650;23.386;2023-02-18T16:28:51;1.60;;;1.50;;
7110;SDS011;3597;42.650;23.386;2023-02-18T16:31:17;1.20;;;1.20;;
7110;SDS011;3597;42.650;23.386;2023-02-18T16:33:45;1.50;;;1.50;;
7110;SDS011;3597;42.650;23.386;2023-02-18T16:36:12;3.33;;;1.87;;
7110;SDS011;3597;42.650;23.386;2023-02-18T16:38:39;1.43;;;1.43;;
7110;SDS011;3597;42.650;23.386;2023-02-18T16:41:05;1.70;;;1.70;;
7110;SDS011;3597;42.650;23.386;2023-02-18T16:43:30;1.60;;;1.60;;
7110;SDS011;3597;42.650;23.386;2023-02-18T16:45:57;2.07;;;1.90;;
7110;SDS011;3597;42.650;23.386;2023-02-18T16:48:33;1.63;;;1.63;;
7110;SDS011;3597;42.650;23.386;2023-02-18T16:51:12;1.50;;;1.50;;
7110;SDS011;3597;42.650;23.386;2023-02-18T16:53:42;2.00;;;1.90;;
7110;SDS011;3597;42.650;23.386;2023-02-18T16:56:14;1.37;;;1.37;;
7110;SDS011;3597;42.650;23.386;2023-02-18T16:58:41;4.27;;;2.00;;
7110;SDS011;3597;42.650;23.386;2023-02-18T17:01:10;1.80;;;1.70;;
7110;SDS011;3597;42.650;23.386;2023-02-18T17:03:50;1.77;;;1.77;;
7110;SDS011;3597;42.650;23.386;2023-02-18T17:06:17;1.40;;;1.40;;
7110;SDS011;3597;42.650;23.386;2023-02-18T17:08:42;1.80;;;1.60;;
7110;SDS011;3597;42.650;23.386;2023-02-18T17:11:09;2.60;;;1.60;;
7110;SDS011;3597;42.650;23.386;2023-02-18T17:13:40;1.40;;;1.40;;
7110;SDS011;3597;42.650;23.386;2023-02-18T17:16:07;1.73;;;1.67;;
7110;SDS011;3597;42.650;23.386;2023-02-18T17:18:34;1.73;;;1.63;;
7110;SDS011;3597;42.650;23.386;2023-02-18T17:20:59;1.73;;;1.70;;
7110;SDS011;3597;42.650;23.386;2023-02-18T17:23:24;1.40;;;1.40;;
7110;SDS011;3597;42.650;23.386;2023-02-18T17:25:50;1.40;;;1.40;;
7110;SDS011;3597;42.650;23.386;2023-02-18T17:28:16;2.13;;;2.00;;
7110;SDS011;3597;42.650;23.386;2023-02-18T17:30:43;1.37;;;1.37;;
7110;SDS011;3597;42.650;23.386;2023-02-18T17:33:10;1.47;;;1.47;;
7110;SDS011;3597;42.650;23.386;2023-02-18T17:35:39;1.53;;;1.43;;
7110;SDS011;3597;42.650;23.386;2023-02-18T17:38:08;1.53;;;1.53;;
7110;SDS011;3597;42.650;23.386;2023-02-18T17:40:38;1.93;;;1.93;;
7110;SDS011;3597;42.650;23.386;2023-02-18T17:43:03;2.40;;;2.30;;
7110;SDS011;3597;42.650;23.386;2023-02-18T17:45:36;2.40;;;2.30;;
7110;SDS011;3597;42.650;23.386;2023-02-18T17:48:04;2.33;;;2.23;;
7110;SDS011;3597;42.650;23.386;2023-02-18T17:50:30;2.00;;;1.90;;
7110;SDS011;3597;42.650;23.386;2023-02-18T17:52:56;2.30;;;2.20;;
7110;SDS011;3597;42.650;23.386;2023-02-18T17:55:26;2.40;;;2.30;;
7110;SDS011;3597;42.650;23.386;2023-02-18T17:57:54;1.80;;;1.80;;
7110;SDS011;3597;42.650;23.386;2023-02-18T18:00:22;2.00;;;1.90;;
7110;SDS011;3597;42.650;23.386;2023-02-18T18:02:49;2.00;;;2.00;;
7110;SDS011;3597;42.650;23.386;2023-02-18T18:05:16;2.10;;;1.97;;
7110;SDS011;3597;42.650;23.386;2023-02-18T18:07:47;1.73;;;1.73;;
7110;SDS011;3597;42.650;23.386;2023-02-18T18:10:14;1.67;;;1.67;;
7110;SDS011;3597;42.650;23.386;2023-02-18T18:12:39;1.90;;;1.80;;
7110;SDS011;3597;42.650;23.386;2023-02-18T18:15:13;1.93;;;1.93;;
7110;SDS011;3597;42.650;23.386;2023-02-18T18:17:53;1.90;;;1.80;;
7110;SDS011;3597;42.650;23.386;2023-02-18T18:20:19;3.20;;;1.90;;
7110;SDS011;3597;42.650;23.386;2023-02-18T18:22:45;2.30;;;2.20;;